sensor_id;sensor_type;location;lat;lon;timestamp;P1;durP1;ratioP1;P2;durP2;ratioP2
26686;SDS011;14298;50.900;4.648;2023-04-24T00:00:32;3.60;;;3.30;;
26686;SDS011;14298;50.900;4.648;2023-04-24T00:03:00;6.23;;;5.20;;
26686;SDS011;14298;50.900;4.648;2023-04-24T00:05:29;7.13;;;4.97;;
26686;SDS011;14298;50.900;4.648;2023-04-24T00:07:57;5.17;;;4.67;;
26686;SDS011;14298;50.900;4.648;2023-04-24T00:10:25;7.13;;;5.03;;
26686;SDS011;14298;50.900;4.648;2023-04-24T00:12:53;5.20;;;4.70;;
26686;SDS011;14298;50.900;4.648;2023-04-24T00:15:21;5.30;;;4.57;;
26686;SDS011;14298;50.900;4.648;2023-04-24T00:17:49;9.43;;;4.50;;
26686;SDS011;14298;50.900;4.648;2023-04-24T00:20:18;5.07;;;4.37;;
26686;SDS011;14298;50.900;4.648;2023-04-24T00:22:46;4.13;;;3.83;;
26686;SDS011;14298;50.900;4.648;2023-04-24T00:25:14;7.97;;;3.77;;
26686;SDS011;14298;50.900;4.648;2023-04-24T00:27:42;5.03;;;4.00;;
26686;SDS011;14298;50.900;4.648;2023-04-24T00:30:10;5.20;;;4.33;;
26686;SDS011;14298;50.900;4.648;2023-04-24T00:32:38;7.17;;;4.37;;
26686;SDS011;14298;50.900;4.648;2023-04-24T00:35:06;5.87;;;4.73;;
26686;SDS011;14298;50.900;4.648;2023-04-24T00:37:34;4.37;;;3.50;;
26686;SDS011;14298;50.900;4.648;2023-04-24T00:40:03;5.83;;;3.80;;
26686;SDS011;14298;50.900;4.648;2023-04-24T00:42:31;6.03;;;4.60;;
26686;SDS011;14298;50.900;4.648;2023-04-24T00:44:59;8.13;;;4.50;;
26686;SDS011;14298;50.900;4.648;2023-04-24T00:47:28;11.37;;;4.70;;
26686;SDS011;14298;50.900;4.648;2023-04-24T00:49:57;11.57;;;5.27;;
26686;SDS011;14298;50.900;4.648;2023-04-24T00:52:24;4.47;;;3.83;;
26686;SDS011;14298;50.900;4.648;2023-04-24T00:54:53;6.00;;;3.57;;
26686;SDS011;14298;50.900;4.648;2023-04-24T00:57:21;7.33;;;5.77;;
26686;SDS011;14298;50.900;4.648;2023-04-24T00:59:51;4.90;;;4.27;;
26686;SDS011;14298;50.900;4.648;2023-04-24T01:02:19;4.30;;;3.90;;
26686;SDS011;14298;50.900;4.648;2023-04-24T01:04:47;6.00;;;4.83;;
26686;SDS011;14298;50.900;4.648;2023-04-24T01:07:18;4.83;;;3.87;;
26686;SDS011;14298;50.900;4.648;2023-04-24T01:09:47;5.87;;;4.53;;
26686;SDS011;14298;50.900;4.648;2023-04-24T01:12:18;4.93;;;4.17;;
26686;SDS011;14298;50.900;4.648;2023-04-24T01:14:46;7.17;;;4.87;;
26686;SDS011;14298;50.900;4.648;2023-04-24T01:17:14;8.30;;;4.13;;
26686;SDS011;14298;50.900;4.648;2023-04-24T01:19:42;5.00;;;4.23;;
26686;SDS011;14298;50.900;4.648;2023-04-24T01:22:13;7.13;;;4.57;;
26686;SDS011;14298;50.900;4.648;2023-04-24T01:24:41;5.93;;;4.93;;
26686;SDS011;14298;50.900;4.648;2023-04-24T01:27:10;5.20;;;4.03;;
26686;SDS011;14298;50.900;4.648;2023-04-24T01:29:38;6.00;;;4.73;;
26686;SDS011;14298;50.900;4.648;2023-04-24T01:32:06;4.20;;;3.90;;
26686;SDS011;14298;50.900;4.648;2023-04-24T01:34:34;13.90;;;4.20;;
26686;SDS011;14298;50.900;4.648;2023-04-24T01:37:02;4.43;;;4.03;;
26686;SDS011;14298;50.900;4.648;2023-04-24T01:39:32;4.87;;;3.30;;
26686;SDS011;14298;50.900;4.648;2023-04-24T01:42:00;4.40;;;3.60;;
26686;SDS011;14298;50.900;4.648;2023-04-24T01:44:29;5.10;;;3.80;;
26686;SDS011;14298;50.900;4.648;2023-04-24T01:46:58;4.87;;;3.97;;
26686;SDS011;14298;50.900;4.648;2023-04-24T01:49:26;5.67;;;3.80;;
26686;SDS011;14298;50.900;4.648;2023-04-24T01:51:54;3.60;;;2.47;;
26686;SDS011;14298;50.900;4.648;2023-04-24T01:54:22;5.17;;;3.87;;
26686;SDS011;14298;50.900;4.648;2023-04-24T01:56:50;3.33;;;3.07;;
26686;SDS011;14298;50.900;4.648;2023-04-24T01:59:18;3.63;;;2.70;;
26686;SDS011;14298;50.900;4.648;2023-04-24T02:01:48;3.30;;;2.83;;
26686;SDS011;14298;50.900;4.648;2023-04-24T02:04:16;4.87;;;3.57;;
26686;SDS011;14298;50.900;4.648;2023-04-24T02:06:44;11.60;;;3.00;;
26686;SDS011;14298;50.900;4.648;2023-04-24T02:09:12;4.07;;;3.63;;
26686;SDS011;14298;50.900;4.648;2023-04-24T02:11:40;2.53;;;2.33;;
26686;SDS011;14298;50.900;4.648;2023-04-24T02:14:08;2.70;;;2.50;;
26686;SDS011;14298;50.900;4.648;2023-04-24T02:16:36;3.37;;;2.83;;
26686;SDS011;14298;50.900;4.648;2023-04-24T02:19:04;7.00;;;3.20;;
26686;SDS011;14298;50.900;4.648;2023-04-24T02:21:32;10.10;;;3.93;;
26686;SDS011;14298;50.900;4.648;2023-04-24T02:24:00;4.80;;;3.60;;
26686;SDS011;14298;50.900;4.648;2023-04-24T02:26:28;5.93;;;3.60;;
26686;SDS011;14298;50.900;4.648;2023-04-24T02:28:57;3.63;;;3.33;;
26686;SDS011;14298;50.900;4.648;2023-04-24T02:31:25;5.30;;;3.53;;
26686;SDS011;14298;50.900;4.648;2023-04-24T02:33:53;4.07;;;3.67;;
26686;SDS011;14298;50.900;4.648;2023-04-24T02:36:21;5.57;;;4.47;;
26686;SDS011;14298;50.900;4.648;2023-04-24T02:38:49;6.50;;;3.87;;
26686;SDS011;14298;50.900;4.648;2023-04-24T02:41:17;6.57;;;3.90;;
26686;SDS011;14298;50.900;4.648;2023-04-24T02:43:46;3.83;;;3.30;;
26686;SDS011;14298;50.900;4.648;2023-04-24T02:46:14;4.60;;;4.17;;
26686;SDS011;14298;50.900;4.648;2023-04-24T02:48:42;8.37;;;4.47;;
26686;SDS011;14298;50.900;4.648;2023-04-24T02:51:10;4.00;;;3.63;;
26686;SDS011;14298;50.900;4.648;2023-04-24T02:53:38;3.90;;;3.53;;
26686;SDS011;14298;50.900;4.648;2023-04-24T02:56:06;3.33;;;2.83;;
26686;SDS011;14298;50.900;4.648;2023-04-24T02:58:34;12.97;;;4.60;;
26686;SDS011;14298;50.900;4.648;2023-04-24T03:01:02;5.03;;;4.63;;
26686;SDS011;14298;50.900;4.648;2023-04-24T03:03:30;4.90;;;4.33;;
26686;SDS011;14298;50.900;4.648;2023-04-24T03:05:58;6.20;;;3.87;;
26686;SDS011;14298;50.900;4.648;2023-04-24T03:08:27;3.27;;;3.07;;
26686;SDS011;14298;50.900;4.648;2023-04-24T03:10:55;4.00;;;3.67;;
26686;SDS011;14298;50.900;4.648;2023-04-24T03:13:23;4.97;;;3.83;;
26686;SDS011;14298;50.900;4.648;2023-04-24T03:15:51;6.13;;;4.17;;
26686;SDS011;14298;50.900;4.648;2023-04-24T03:18:19;4.70;;;3.13;;
26686;SDS011;14298;50.900;4.648;2023-04-24T03:20:47;3.40;;;3.10;;
26686;SDS011;14298;50.900;4.648;2023-04-24T03:23:15;3.10;;;2.83;;
26686;SDS011;14298;50.900;4.648;2023-04-24T03:25:43;4.87;;;4.27;;
26686;SDS011;14298;50.900;4.648;2023-04-24T03:28:12;4.57;;;3.70;;
26686;SDS011;14298;50.900;4.648;2023-04-24T03:30:40;2.40;;;2.20;;
26686;SDS011;14298;50.900;4.648;2023-04-24T03:33:08;3.83;;;3.47;;
26686;SDS011;14298;50.900;4.648;2023-04-24T03:35:36;2.73;;;2.53;;
26686;SDS011;14298;50.900;4.648;2023-04-24T03:38:05;4.40;;;3.00;;
26686;SDS011;14298;50.900;4.648;2023-04-24T03:40:33;4.03;;;3.27;;
26686;SDS011;14298;50.900;4.648;2023-04-24T03:43:01;3.03;;;2.83;;
26686;SDS011;14298;50.900;4.648;2023-04-24T03:45:29;2.63;;;2.43;;
26686;SDS011;14298;50.900;4.648;2023-04-24T03:47:57;3.00;;;2.70;;
26686;SDS011;14298;50.900;4.648;2023-04-24T03:50:25;2.53;;;1.80;;
26686;SDS011;14298;50.900;4.648;2023-04-24T03:52:55;2.77;;;2.50;;
26686;SDS011;14298;50.900;4.648;2023-04-24T03:55:23;2.83;;;2.63;;
26686;SDS011;14298;50.900;4.648;2023-04-24T03:57:51;3.00;;;2.70;;
26686;SDS011;14298;50.900;4.648;2023-04-24T04:00:18;6.30;;;1.90;;
26686;SDS011;14298;50.900;4.648;2023-04-24T04:02:48;3.20;;;2.77;;
26686;SDS011;14298;50.900;4.648;2023-04-24T04:05:16;2.40;;;2.20;;
26686;SDS011;14298;50.900;4.648;2023-04-24T04:07:44;2.63;;;2.33;;
26686;SDS011;14298;50.900;4.648;2023-04-24T04:10:12;7.47;;;2.40;;
26686;SDS011;14298;50.900;4.648;2023-04-24T04:12:40;1.53;;;1.43;;
26686;SDS011;14298;50.900;4.648;2023-04-24T04:15:08;1.87;;;1.77;;
26686;SDS011;14298;50.900;4.648;2023-04-24T04:17:36;2.07;;;1.97;;
26686;SDS011;14298;50.900;4.648;2023-04-24T04:20:05;1.70;;;1.60;;
26686;SDS011;14298;50.900;4.648;2023-04-24T04:22:35;1.90;;;1.80;;
26686;SDS011;14298;50.900;4.648;2023-04-24T04:25:03;1.43;;;1.33;;
26686;SDS011;14298;50.900;4.648;2023-04-24T04:27:32;1.33;;;1.33;;
26686;SDS011;14298;50.900;4.648;2023-04-24T04:30:01;1.43;;;1.33;;
26686;SDS011;14298;50.900;4.648;2023-04-24T04:32:31;1.83;;;1.73;;
26686;SDS011;14298;50.900;4.648;2023-04-24T04:35:01;1.93;;;1.83;;
26686;SDS011;14298;50.900;4.648;2023-04-24T04:37:30;2.53;;;2.37;;
26686;SDS011;14298;50.900;4.648;2023-04-24T04:39:59;2.33;;;2.13;;
26686;SDS011;14298;50.900;4.648;2023-04-24T04:42:27;3.87;;;2.00;;
26686;SDS011;14298;50.900;4.648;2023-04-24T04:44:55;1.80;;;1.70;;
26686;SDS011;14298;50.900;4.648;2023-04-24T04:47:24;1.80;;;1.63;;
26686;SDS011;14298;50.900;4.648;2023-04-24T04:49:53;2.50;;;1.67;;
26686;SDS011;14298;50.900;4.648;2023-04-24T04:52:22;2.07;;;1.90;;
26686;SDS011;14298;50.900;4.648;2023-04-24T04:54:52;5.90;;;2.40;;
26686;SDS011;14298;50.900;4.648;2023-04-24T04:57:20;2.70;;;2.50;;
26686;SDS011;14298;50.900;4.648;2023-04-24T04:59:48;2.83;;;2.53;;
26686;SDS011;14298;50.900;4.648;2023-04-24T05:02:16;7.53;;;3.53;;
26686;SDS011;14298;50.900;4.648;2023-04-24T05:04:44;2.73;;;2.53;;
26686;SDS011;14298;50.900;4.648;2023-04-24T05:07:12;3.03;;;2.83;;
26686;SDS011;14298;50.900;4.648;2023-04-24T05:09:40;3.43;;;2.97;;
26686;SDS011;14298;50.900;4.648;2023-04-24T05:12:08;3.73;;;2.90;;
26686;SDS011;14298;50.900;4.648;2023-04-24T05:14:36;3.47;;;3.17;;
26686;SDS011;14298;50.900;4.648;2023-04-24T05:17:04;3.37;;;3.13;;
26686;SDS011;14298;50.900;4.648;2023-04-24T05:19:32;3.47;;;2.97;;
26686;SDS011;14298;50.900;4.648;2023-04-24T05:22:01;2.63;;;2.50;;
26686;SDS011;14298;50.900;4.648;2023-04-24T05:24:31;3.50;;;3.17;;
26686;SDS011;14298;50.900;4.648;2023-04-24T05:26:59;5.37;;;3.17;;
26686;SDS011;14298;50.900;4.648;2023-04-24T05:29:27;3.40;;;2.83;;
26686;SDS011;14298;50.900;4.648;2023-04-24T05:31:57;4.33;;;3.63;;
26686;SDS011;14298;50.900;4.648;2023-04-24T05:34:25;2.43;;;2.33;;
26686;SDS011;14298;50.900;4.648;2023-04-24T05:36:53;2.53;;;2.33;;
26686;SDS011;14298;50.900;4.648;2023-04-24T05:39:21;5.50;;;3.23;;
26686;SDS011;14298;50.900;4.648;2023-04-24T05:41:51;10.50;;;2.90;;
26686;SDS011;14298;50.900;4.648;2023-04-24T05:44:19;6.70;;;3.80;;
26686;SDS011;14298;50.900;4.648;2023-04-24T05:46:47;3.47;;;3.13;;
26686;SDS011;14298;50.900;4.648;2023-04-24T05:49:15;4.13;;;3.27;;
26686;SDS011;14298;50.900;4.648;2023-04-24T05:51:43;3.63;;;2.70;;
26686;SDS011;14298;50.900;4.648;2023-04-24T05:54:11;3.50;;;3.20;;
26686;SDS011;14298;50.900;4.648;2023-04-24T05:56:39;6.67;;;4.50;;
26686;SDS011;14298;50.900;4.648;2023-04-24T05:59:07;3.30;;;3.00;;
26686;SDS011;14298;50.900;4.648;2023-04-24T06:01:36;5.50;;;4.07;;
26686;SDS011;14298;50.900;4.648;2023-04-24T06:04:04;2.93;;;2.63;;
26686;SDS011;14298;50.900;4.648;2023-04-24T06:06:32;3.47;;;3.27;;
26686;SDS011;14298;50.900;4.648;2023-04-24T06:09:01;3.73;;;3.40;;
26686;SDS011;14298;50.900;4.648;2023-04-24T06:11:29;5.00;;;4.53;;
26686;SDS011;14298;50.900;4.648;2023-04-24T06:13:57;4.30;;;3.23;;
26686;SDS011;14298;50.900;4.648;2023-04-24T06:16:25;6.30;;;4.40;;
26686;SDS011;14298;50.900;4.648;2023-04-24T06:18:53;4.50;;;4.10;;
26686;SDS011;14298;50.900;4.648;2023-04-24T06:21:22;5.90;;;5.17;;
26686;SDS011;14298;50.900;4.648;2023-04-24T06:23:50;5.87;;;5.20;;
26686;SDS011;14298;50.900;4.648;2023-04-24T06:26:18;6.60;;;6.10;;
26686;SDS011;14298;50.900;4.648;2023-04-24T06:28:46;7.73;;;5.67;;
26686;SDS011;14298;50.900;4.648;2023-04-24T06:31:15;9.60;;;6.73;;
26686;SDS011;14298;50.900;4.648;2023-04-24T06:33:43;10.60;;;7.50;;
26686;SDS011;14298;50.900;4.648;2023-04-24T06:36:12;10.07;;;7.13;;
26686;SDS011;14298;50.900;4.648;2023-04-24T06:38:40;10.10;;;6.67;;
26686;SDS011;14298;50.900;4.648;2023-04-24T06:41:09;6.30;;;5.90;;
26686;SDS011;14298;50.900;4.648;2023-04-24T06:43:37;10.23;;;7.07;;
26686;SDS011;14298;50.900;4.648;2023-04-24T06:46:05;6.47;;;5.90;;
26686;SDS011;14298;50.900;4.648;2023-04-24T06:48:33;6.33;;;5.90;;
26686;SDS011;14298;50.900;4.648;2023-04-24T06:51:01;7.73;;;6.07;;
26686;SDS011;14298;50.900;4.648;2023-04-24T06:53:29;7.10;;;6.40;;
26686;SDS011;14298;50.900;4.648;2023-04-24T06:55:57;7.13;;;6.47;;
26686;SDS011;14298;50.900;4.648;2023-04-24T06:58:25;6.13;;;5.63;;
26686;SDS011;14298;50.900;4.648;2023-04-24T07:00:53;5.80;;;5.07;;
26686;SDS011;14298;50.900;4.648;2023-04-24T07:03:21;11.30;;;5.87;;
26686;SDS011;14298;50.900;4.648;2023-04-24T07:05:49;8.87;;;7.23;;
26686;SDS011;14298;50.900;4.648;2023-04-24T07:08:18;11.97;;;6.33;;
26686;SDS011;14298;50.900;4.648;2023-04-24T07:10:48;6.07;;;5.57;;
26686;SDS011;14298;50.900;4.648;2023-04-24T07:13:16;7.30;;;6.57;;
26686;SDS011;14298;50.900;4.648;2023-04-24T07:15:44;7.87;;;7.10;;
26686;SDS011;14298;50.900;4.648;2023-04-24T07:18:12;7.67;;;6.97;;
26686;SDS011;14298;50.900;4.648;2023-04-24T07:20:42;7.73;;;6.43;;
26686;SDS011;14298;50.900;4.648;2023-04-24T07:23:10;7.50;;;5.40;;
26686;SDS011;14298;50.900;4.648;2023-04-24T07:25:38;6.57;;;5.87;;
26686;SDS011;14298;50.900;4.648;2023-04-24T07:28:06;7.03;;;6.33;;
26686;SDS011;14298;50.900;4.648;2023-04-24T07:30:34;4.97;;;4.53;;
26686;SDS011;14298;50.900;4.648;2023-04-24T07:33:02;7.47;;;5.87;;
26686;SDS011;14298;50.900;4.648;2023-04-24T07:35:30;6.60;;;4.77;;
26686;SDS011;14298;50.900;4.648;2023-04-24T07:37:58;7.50;;;6.80;;
26686;SDS011;14298;50.900;4.648;2023-04-24T07:40:26;6.97;;;6.27;;
26686;SDS011;14298;50.900;4.648;2023-04-24T07:42:54;6.77;;;5.97;;
26686;SDS011;14298;50.900;4.648;2023-04-24T07:45:22;8.40;;;6.30;;
26686;SDS011;14298;50.900;4.648;2023-04-24T07:47:51;6.70;;;5.73;;
26686;SDS011;14298;50.900;4.648;2023-04-24T07:50:19;6.70;;;5.97;;
26686;SDS011;14298;50.900;4.648;2023-04-24T07:52:47;7.43;;;6.77;;
26686;SDS011;14298;50.900;4.648;2023-04-24T07:55:15;6.00;;;5.40;;
26686;SDS011;14298;50.900;4.648;2023-04-24T07:57:43;7.80;;;5.70;;
26686;SDS011;14298;50.900;4.648;2023-04-24T08:00:11;5.77;;;5.10;;
26686;SDS011;14298;50.900;4.648;2023-04-24T08:02:39;6.70;;;5.77;;
26686;SDS011;14298;50.900;4.648;2023-04-24T08:05:07;6.67;;;6.03;;
26686;SDS011;14298;50.900;4.648;2023-04-24T08:07:35;7.13;;;5.57;;
26686;SDS011;14298;50.900;4.648;2023-04-24T08:10:03;5.67;;;4.47;;
26686;SDS011;14298;50.900;4.648;2023-04-24T08:12:31;5.77;;;4.63;;
26686;SDS011;14298;50.900;4.648;2023-04-24T08:14:59;5.03;;;4.60;;
26686;SDS011;14298;50.900;4.648;2023-04-24T08:17:27;6.43;;;4.40;;
26686;SDS011;14298;50.900;4.648;2023-04-24T08:19:55;6.53;;;3.73;;
26686;SDS011;14298;50.900;4.648;2023-04-24T08:22:25;10.13;;;4.80;;
26686;SDS011;14298;50.900;4.648;2023-04-24T08:24:53;6.80;;;3.77;;
26686;SDS011;14298;50.900;4.648;2023-04-24T08:27:23;9.10;;;3.47;;
26686;SDS011;14298;50.900;4.648;2023-04-24T08:29:52;6.90;;;3.63;;
26686;SDS011;14298;50.900;4.648;2023-04-24T08:32:20;2.30;;;2.10;;
26686;SDS011;14298;50.900;4.648;2023-04-24T08:34:48;2.47;;;2.27;;
26686;SDS011;14298;50.900;4.648;2023-04-24T08:37:16;7.93;;;2.63;;
26686;SDS011;14298;50.900;4.648;2023-04-24T08:39:44;6.90;;;3.13;;
26686;SDS011;14298;50.900;4.648;2023-04-24T08:42:12;3.33;;;2.37;;
26686;SDS011;14298;50.900;4.648;2023-04-24T08:44:42;4.30;;;3.90;;
26686;SDS011;14298;50.900;4.648;2023-04-24T08:47:11;4.73;;;3.60;;
26686;SDS011;14298;50.900;4.648;2023-04-24T08:49:39;5.67;;;4.20;;
26686;SDS011;14298;50.900;4.648;2023-04-24T08:52:07;4.53;;;3.33;;
26686;SDS011;14298;50.900;4.648;2023-04-24T08:54:37;2.60;;;2.40;;
26686;SDS011;14298;50.900;4.648;2023-04-24T08:57:06;2.77;;;2.37;;
26686;SDS011;14298;50.900;4.648;2023-04-24T08:59:36;10.50;;;3.30;;
26686;SDS011;14298;50.900;4.648;2023-04-24T09:02:05;2.37;;;2.17;;
26686;SDS011;14298;50.900;4.648;2023-04-24T09:04:36;6.23;;;2.43;;
26686;SDS011;14298;50.900;4.648;2023-04-24T09:07:03;3.07;;;2.40;;
26686;SDS011;14298;50.900;4.648;2023-04-24T09:09:33;4.30;;;2.47;;
26686;SDS011;14298;50.900;4.648;2023-04-24T09:12:02;7.93;;;3.70;;
26686;SDS011;14298;50.900;4.648;2023-04-24T09:14:31;3.30;;;2.20;;
26686;SDS011;14298;50.900;4.648;2023-04-24T09:16:59;4.03;;;2.57;;
26686;SDS011;14298;50.900;4.648;2023-04-24T09:19:27;6.67;;;2.73;;
26686;SDS011;14298;50.900;4.648;2023-04-24T09:21:55;3.97;;;2.90;;
26686;SDS011;14298;50.900;4.648;2023-04-24T09:24:23;8.07;;;3.17;;
26686;SDS011;14298;50.900;4.648;2023-04-24T09:26:58;3.43;;;2.43;;
26686;SDS011;14298;50.900;4.648;2023-04-24T09:29:28;4.17;;;2.30;;
26686;SDS011;14298;50.900;4.648;2023-04-24T09:31:56;2.63;;;2.20;;
26686;SDS011;14298;50.900;4.648;2023-04-24T09:34:25;3.73;;;2.00;;
26686;SDS011;14298;50.900;4.648;2023-04-24T09:36:54;2.27;;;1.80;;
26686;SDS011;14298;50.900;4.648;2023-04-24T09:39:22;1.90;;;1.70;;
26686;SDS011;14298;50.900;4.648;2023-04-24T09:41:51;5.13;;;2.13;;
26686;SDS011;14298;50.900;4.648;2023-04-24T09:44:23;3.10;;;2.13;;
26686;SDS011;14298;50.900;4.648;2023-04-24T09:46:53;4.60;;;2.23;;
26686;SDS011;14298;50.900;4.648;2023-04-24T09:49:22;2.50;;;1.80;;
26686;SDS011;14298;50.900;4.648;2023-04-24T09:51:51;1.80;;;1.70;;
26686;SDS011;14298;50.900;4.648;2023-04-24T09:54:20;4.90;;;1.63;;
26686;SDS011;14298;50.900;4.648;2023-04-24T09:56:49;7.93;;;2.00;;
26686;SDS011;14298;50.900;4.648;2023-04-24T09:59:18;1.10;;;1.10;;
26686;SDS011;14298;50.900;4.648;2023-04-24T10:01:46;3.93;;;1.90;;
26686;SDS011;14298;50.900;4.648;2023-04-24T10:04:16;1.47;;;1.37;;
26686;SDS011;14298;50.900;4.648;2023-04-24T10:06:45;2.17;;;1.57;;
26686;SDS011;14298;50.900;4.648;2023-04-24T10:09:14;2.60;;;1.97;;
26686;SDS011;14298;50.900;4.648;2023-04-24T10:11:43;2.23;;;1.70;;
26686;SDS011;14298;50.900;4.648;2023-04-24T10:14:22;1.17;;;1.07;;
26686;SDS011;14298;50.900;4.648;2023-04-24T10:16:45;2.27;;;2.07;;
26686;SDS011;14298;50.900;4.648;2023-04-24T10:19:16;1.50;;;1.40;;
26686;SDS011;14298;50.900;4.648;2023-04-24T10:21:47;1.73;;;1.63;;
26686;SDS011;14298;50.900;4.648;2023-04-24T10:24:16;2.50;;;1.87;;
26686;SDS011;14298;50.900;4.648;2023-04-24T10:26:45;1.93;;;1.83;;
26686;SDS011;14298;50.900;4.648;2023-04-24T10:29:16;2.50;;;1.57;;
26686;SDS011;14298;50.900;4.648;2023-04-24T10:31:45;1.40;;;1.23;;
26686;SDS011;14298;50.900;4.648;2023-04-24T10:34:14;7.97;;;2.00;;
26686;SDS011;14298;50.900;4.648;2023-04-24T10:36:44;1.97;;;1.77;;
26686;SDS011;14298;50.900;4.648;2023-04-24T10:39:12;3.53;;;1.63;;
26686;SDS011;14298;50.900;4.648;2023-04-24T10:41:42;4.40;;;1.30;;
26686;SDS011;14298;50.900;4.648;2023-04-24T10:44:13;0.93;;;0.93;;
26686;SDS011;14298;50.900;4.648;2023-04-24T10:46:46;1.50;;;1.30;;
26686;SDS011;14298;50.900;4.648;2023-04-24T10:49:17;1.73;;;1.50;;
26686;SDS011;14298;50.900;4.648;2023-04-24T10:51:47;4.93;;;1.97;;
26686;SDS011;14298;50.900;4.648;2023-04-24T10:56:51;1.57;;;1.47;;
26686;SDS011;14298;50.900;4.648;2023-04-24T10:59:34;3.77;;;1.43;;
26686;SDS011;14298;50.900;4.648;2023-04-24T11:01:58;1.23;;;1.13;;
26686;SDS011;14298;50.900;4.648;2023-04-24T11:04:29;2.13;;;2.03;;
26686;SDS011;14298;50.900;4.648;2023-04-24T11:06:58;3.67;;;1.83;;
26686;SDS011;14298;50.900;4.648;2023-04-24T11:09:27;1.37;;;1.27;;
26686;SDS011;14298;50.900;4.648;2023-04-24T11:12:05;4.10;;;1.67;;
26686;SDS011;14298;50.900;4.648;2023-04-24T11:15:17;1.67;;;1.40;;
26686;SDS011;14298;50.900;4.648;2023-04-24T11:17:07;1.23;;;1.13;;
26686;SDS011;14298;50.900;4.648;2023-04-24T11:19:35;1.37;;;1.27;;
26686;SDS011;14298;50.900;4.648;2023-04-24T11:22:03;1.93;;;1.77;;
26686;SDS011;14298;50.900;4.648;2023-04-24T11:24:33;1.40;;;1.30;;
26686;SDS011;14298;50.900;4.648;2023-04-24T11:30:17;3.47;;;1.50;;
26686;SDS011;14298;50.900;4.648;2023-04-24T11:37:42;1.67;;;1.57;;
26686;SDS011;14298;50.900;4.648;2023-04-24T11:40:10;1.80;;;1.20;;
26686;SDS011;14298;50.900;4.648;2023-04-24T11:42:39;2.67;;;1.07;;
26686;SDS011;14298;50.900;4.648;2023-04-24T11:47:37;1.97;;;1.83;;
26686;SDS011;14298;50.900;4.648;2023-04-24T11:50:06;1.50;;;1.40;;
26686;SDS011;14298;50.900;4.648;2023-04-24T11:52:38;1.90;;;1.40;;
26686;SDS011;14298;50.900;4.648;2023-04-24T11:57:43;2.47;;;1.10;;
26686;SDS011;14298;50.900;4.648;2023-04-24T12:00:15;1.57;;;1.37;;
26686;SDS011;14298;50.900;4.648;2023-04-24T12:02:43;8.13;;;1.10;;
26686;SDS011;14298;50.900;4.648;2023-04-24T12:05:21;1.17;;;1.07;;
26686;SDS011;14298;50.900;4.648;2023-04-24T12:07:50;1.50;;;1.40;;
26686;SDS011;14298;50.900;4.648;2023-04-24T12:10:21;2.07;;;1.60;;
26686;SDS011;14298;50.900;4.648;2023-04-24T12:12:50;1.70;;;1.60;;
26686;SDS011;14298;50.900;4.648;2023-04-24T12:15:23;5.57;;;1.60;;
26686;SDS011;14298;50.900;4.648;2023-04-24T12:17:48;1.43;;;1.33;;
26686;SDS011;14298;50.900;4.648;2023-04-24T12:20:17;1.23;;;1.13;;
26686;SDS011;14298;50.900;4.648;2023-04-24T12:22:46;4.93;;;1.57;;
26686;SDS011;14298;50.900;4.648;2023-04-24T12:25:15;1.20;;;1.10;;
26686;SDS011;14298;50.900;4.648;2023-04-24T12:27:44;2.63;;;1.23;;
26686;SDS011;14298;50.900;4.648;2023-04-24T12:30:13;2.77;;;1.57;;
26686;SDS011;14298;50.900;4.648;2023-04-24T12:32:46;1.57;;;1.47;;
26686;SDS011;14298;50.900;4.648;2023-04-24T12:35:11;1.50;;;1.40;;
26686;SDS011;14298;50.900;4.648;2023-04-24T12:37:41;1.57;;;1.47;;
26686;SDS011;14298;50.900;4.648;2023-04-24T12:40:10;1.93;;;1.53;;
26686;SDS011;14298;50.900;4.648;2023-04-24T12:42:42;2.30;;;1.60;;
26686;SDS011;14298;50.900;4.648;2023-04-24T12:45:11;1.90;;;1.70;;
26686;SDS011;14298;50.900;4.648;2023-04-24T12:47:40;1.50;;;1.40;;
26686;SDS011;14298;50.900;4.648;2023-04-24T12:50:08;1.47;;;1.30;;
26686;SDS011;14298;50.900;4.648;2023-04-24T12:52:37;1.97;;;1.10;;
26686;SDS011;14298;50.900;4.648;2023-04-24T12:55:06;6.00;;;2.07;;
26686;SDS011;14298;50.900;4.648;2023-04-24T12:57:38;1.30;;;1.20;;
26686;SDS011;14298;50.900;4.648;2023-04-24T13:00:07;1.73;;;1.60;;
26686;SDS011;14298;50.900;4.648;2023-04-24T13:02:35;1.43;;;1.33;;
26686;SDS011;14298;50.900;4.648;2023-04-24T13:05:03;2.90;;;1.50;;
26686;SDS011;14298;50.900;4.648;2023-04-24T13:07:32;1.87;;;1.50;;
26686;SDS011;14298;50.900;4.648;2023-04-24T13:10:00;1.80;;;1.43;;
26686;SDS011;14298;50.900;4.648;2023-04-24T13:12:28;1.97;;;1.27;;
26686;SDS011;14298;50.900;4.648;2023-04-24T13:14:57;1.33;;;1.23;;
26686;SDS011;14298;50.900;4.648;2023-04-24T13:17:25;5.27;;;1.87;;
26686;SDS011;14298;50.900;4.648;2023-04-24T13:19:54;3.90;;;2.00;;
26686;SDS011;14298;50.900;4.648;2023-04-24T13:22:23;1.77;;;1.50;;
26686;SDS011;14298;50.900;4.648;2023-04-24T13:24:51;1.57;;;1.10;;
26686;SDS011;14298;50.900;4.648;2023-04-24T13:27:19;1.67;;;1.30;;
26686;SDS011;14298;50.900;4.648;2023-04-24T13:29:47;2.03;;;1.43;;
26686;SDS011;14298;50.900;4.648;2023-04-24T13:32:14;3.40;;;0.90;;
26686;SDS011;14298;50.900;4.648;2023-04-24T13:34:42;0.80;;;0.80;;
26686;SDS011;14298;50.900;4.648;2023-04-24T13:37:10;2.10;;;1.50;;
26686;SDS011;14298;50.900;4.648;2023-04-24T13:39:38;3.60;;;1.27;;
26686;SDS011;14298;50.900;4.648;2023-04-24T13:42:08;1.07;;;0.90;;
26686;SDS011;14298;50.900;4.648;2023-04-24T13:44:36;0.80;;;0.80;;
26686;SDS011;14298;50.900;4.648;2023-04-24T13:47:04;1.10;;;1.00;;
26686;SDS011;14298;50.900;4.648;2023-04-24T13:49:32;1.33;;;1.13;;
26686;SDS011;14298;50.900;4.648;2023-04-24T13:52:01;0.97;;;0.97;;
26686;SDS011;14298;50.900;4.648;2023-04-24T13:54:29;2.93;;;1.00;;
26686;SDS011;14298;50.900;4.648;2023-04-24T13:56:57;0.90;;;0.90;;
26686;SDS011;14298;50.900;4.648;2023-04-24T13:59:25;3.50;;;1.33;;
26686;SDS011;14298;50.900;4.648;2023-04-24T14:01:53;1.80;;;0.90;;
26686;SDS011;14298;50.900;4.648;2023-04-24T14:04:22;5.00;;;1.50;;
26686;SDS011;14298;50.900;4.648;2023-04-24T14:06:49;1.00;;;0.90;;
26686;SDS011;14298;50.900;4.648;2023-04-24T14:09:18;3.43;;;1.50;;
26686;SDS011;14298;50.900;4.648;2023-04-24T14:11:45;2.70;;;1.20;;
26686;SDS011;14298;50.900;4.648;2023-04-24T14:14:14;1.13;;;1.07;;
26686;SDS011;14298;50.900;4.648;2023-04-24T14:16:42;2.20;;;0.93;;
26686;SDS011;14298;50.900;4.648;2023-04-24T14:19:10;1.53;;;1.00;;
26686;SDS011;14298;50.900;4.648;2023-04-24T14:21:38;0.83;;;0.80;;
26686;SDS011;14298;50.900;4.648;2023-04-24T14:24:06;0.87;;;0.87;;
26686;SDS011;14298;50.900;4.648;2023-04-24T14:26:34;0.70;;;0.70;;
26686;SDS011;14298;50.900;4.648;2023-04-24T14:29:02;3.60;;;1.10;;
26686;SDS011;14298;50.900;4.648;2023-04-24T14:31:30;0.60;;;0.60;;
26686;SDS011;14298;50.900;4.648;2023-04-24T14:33:58;0.67;;;0.67;;
26686;SDS011;14298;50.900;4.648;2023-04-24T14:36:26;0.97;;;0.83;;
26686;SDS011;14298;50.900;4.648;2023-04-24T14:38:54;0.63;;;0.63;;
26686;SDS011;14298;50.900;4.648;2023-04-24T14:41:22;0.67;;;0.67;;
26686;SDS011;14298;50.900;4.648;2023-04-24T14:43:50;0.83;;;0.83;;
26686;SDS011;14298;50.900;4.648;2023-04-24T14:46:18;1.63;;;1.20;;
26686;SDS011;14298;50.900;4.648;2023-04-24T14:48:46;0.70;;;0.70;;
26686;SDS011;14298;50.900;4.648;2023-04-24T14:51:14;0.73;;;0.73;;
26686;SDS011;14298;50.900;4.648;2023-04-24T14:53:42;0.80;;;0.80;;
26686;SDS011;14298;50.900;4.648;2023-04-24T14:56:10;1.13;;;1.00;;
26686;SDS011;14298;50.900;4.648;2023-04-24T14:58:38;3.77;;;1.33;;
26686;SDS011;14298;50.900;4.648;2023-04-24T15:01:06;1.07;;;0.97;;
26686;SDS011;14298;50.900;4.648;2023-04-24T15:03:34;0.70;;;0.70;;
26686;SDS011;14298;50.900;4.648;2023-04-24T15:06:02;1.27;;;1.00;;
26686;SDS011;14298;50.900;4.648;2023-04-24T15:08:30;1.27;;;0.80;;
26686;SDS011;14298;50.900;4.648;2023-04-24T15:10:59;2.13;;;1.03;;